sensor_id;sensor_type;location;lat;lon;timestamp;P1;durP1;ratioP1;P2;durP2;ratioP2
80127;SDS011;69440;52.118;5.408;2023-05-17T00:01:45;8.77;;;2.72;;
80127;SDS011;69440;52.118;5.408;2023-05-17T00:04:12;7.75;;;2.22;;
80127;SDS011;69440;52.118;5.408;2023-05-17T00:06:38;9.82;;;2.38;;
80127;SDS011;69440;52.118;5.408;2023-05-17T00:09:06;11.30;;;2.92;;
80127;SDS011;69440;52.118;5.408;2023-05-17T00:11:32;7.82;;;2.78;;
80127;SDS011;69440;52.118;5.408;2023-05-17T00:13:59;8.45;;;2.42;;
80127;SDS011;69440;52.118;5.408;2023-05-17T00:16:26;10.48;;;2.50;;
80127;SDS011;69440;52.118;5.408;2023-05-17T00:18:52;9.82;;;2.72;;
80127;SDS011;69440;52.118;5.408;2023-05-17T00:21:19;9.48;;;2.60;;
80127;SDS011;69440;52.118;5.408;2023-05-17T00:23:45;12.38;;;3.00;;
80127;SDS011;69440;52.118;5.408;2023-05-17T00:26:12;11.15;;;2.72;;
80127;SDS011;69440;52.118;5.408;2023-05-17T00:28:39;10.98;;;3.03;;
80127;SDS011;69440;52.118;5.408;2023-05-17T00:31:05;8.95;;;2.30;;
80127;SDS011;69440;52.118;5.408;2023-05-17T00:33:31;8.50;;;2.42;;
80127;SDS011;69440;52.118;5.408;2023-05-17T00:35:58;12.32;;;3.72;;
80127;SDS011;69440;52.118;5.408;2023-05-17T00:38:24;15.35;;;2.90;;
80127;SDS011;69440;52.118;5.408;2023-05-17T00:40:51;10.13;;;2.40;;
80127;SDS011;69440;52.118;5.408;2023-05-17T00:43:19;12.43;;;2.88;;
80127;SDS011;69440;52.118;5.408;2023-05-17T00:45:45;14.48;;;2.70;;
80127;SDS011;69440;52.118;5.408;2023-05-17T00:48:14;12.32;;;2.75;;
80127;SDS011;69440;52.118;5.408;2023-05-17T00:50:41;10.55;;;2.83;;
80127;SDS011;69440;52.118;5.408;2023-05-17T00:53:08;11.65;;;3.17;;
80127;SDS011;69440;52.118;5.408;2023-05-17T00:55:34;6.47;;;2.20;;
80127;SDS011;69440;52.118;5.408;2023-05-17T00:58:01;7.57;;;2.20;;
80127;SDS011;69440;52.118;5.408;2023-05-17T01:00:28;10.18;;;2.80;;
80127;SDS011;69440;52.118;5.408;2023-05-17T01:02:54;8.68;;;2.60;;
80127;SDS011;69440;52.118;5.408;2023-05-17T01:05:21;7.82;;;2.67;;
80127;SDS011;69440;52.118;5.408;2023-05-17T01:07:47;9.95;;;2.83;;
80127;SDS011;69440;52.118;5.408;2023-05-17T01:10:14;8.32;;;2.20;;
80127;SDS011;69440;52.118;5.408;2023-05-17T01:16:10;10.82;;;2.53;;
80127;SDS011;69440;52.118;5.408;2023-05-17T01:18:45;7.43;;;2.08;;
80127;SDS011;69440;52.118;5.408;2023-05-17T01:26:43;13.23;;;3.00;;
80127;SDS011;69440;52.118;5.408;2023-05-17T01:29:15;11.25;;;2.88;;
80127;SDS011;69440;52.118;5.408;2023-05-17T01:31:44;10.60;;;3.00;;
80127;SDS011;69440;52.118;5.408;2023-05-17T01:34:11;8.77;;;2.63;;
80127;SDS011;69440;52.118;5.408;2023-05-17T01:36:38;10.48;;;2.95;;
80127;SDS011;69440;52.118;5.408;2023-05-17T01:39:04;13.95;;;2.90;;
80127;SDS011;69440;52.118;5.408;2023-05-17T01:41:40;11.95;;;2.83;;
80127;SDS011;69440;52.118;5.408;2023-05-17T01:46:48;13.45;;;3.08;;
80127;SDS011;69440;52.118;5.408;2023-05-17T01:49:20;11.15;;;2.95;;
80127;SDS011;69440;52.118;5.408;2023-05-17T01:54:54;8.75;;;2.95;;
80127;SDS011;69440;52.118;5.408;2023-05-17T01:57:31;8.10;;;3.22;;
80127;SDS011;69440;52.118;5.408;2023-05-17T02:00:01;8.77;;;2.65;;
80127;SDS011;69440;52.118;5.408;2023-05-17T02:02:32;8.20;;;2.55;;
80127;SDS011;69440;52.118;5.408;2023-05-17T02:04:58;12.05;;;2.72;;
80127;SDS011;69440;52.118;5.408;2023-05-17T02:07:25;10.43;;;2.67;;
80127;SDS011;69440;52.118;5.408;2023-05-17T02:09:51;11.77;;;2.70;;
80127;SDS011;69440;52.118;5.408;2023-05-17T02:12:18;14.23;;;3.22;;
80127;SDS011;69440;52.118;5.408;2023-05-17T02:14:44;10.63;;;3.55;;
80127;SDS011;69440;52.118;5.408;2023-05-17T02:17:11;7.70;;;3.28;;
80127;SDS011;69440;52.118;5.408;2023-05-17T02:19:38;10.73;;;2.90;;
80127;SDS011;69440;52.118;5.408;2023-05-17T02:22:04;9.30;;;3.00;;
80127;SDS011;69440;52.118;5.408;2023-05-17T02:24:31;8.57;;;2.88;;
80127;SDS011;69440;52.118;5.408;2023-05-17T02:26:57;11.63;;;2.78;;
80127;SDS011;69440;52.118;5.408;2023-05-17T02:29:24;13.85;;;3.10;;
80127;SDS011;69440;52.118;5.408;2023-05-17T02:31:50;12.82;;;3.42;;
80127;SDS011;69440;52.118;5.408;2023-05-17T02:34:17;11.48;;;3.35;;
80127;SDS011;69440;52.118;5.408;2023-05-17T02:36:43;8.60;;;2.53;;
80127;SDS011;69440;52.118;5.408;2023-05-17T02:39:09;10.70;;;2.90;;
80127;SDS011;69440;52.118;5.408;2023-05-17T02:41:36;13.20;;;3.00;;
80127;SDS011;69440;52.118;5.408;2023-05-17T02:44:02;9.35;;;2.63;;
80127;SDS011;69440;52.118;5.408;2023-05-17T02:46:29;11.98;;;2.70;;
80127;SDS011;69440;52.118;5.408;2023-05-17T02:48:55;17.60;;;4.15;;
80127;SDS011;69440;52.118;5.408;2023-05-17T02:51:22;18.27;;;3.20;;
80127;SDS011;69440;52.118;5.408;2023-05-17T02:53:48;7.32;;;2.50;;
80127;SDS011;69440;52.118;5.408;2023-05-17T02:56:15;14.05;;;3.50;;
80127;SDS011;69440;52.118;5.408;2023-05-17T02:58:41;9.85;;;3.00;;
80127;SDS011;69440;52.118;5.408;2023-05-17T03:01:08;11.32;;;2.90;;
80127;SDS011;69440;52.118;5.408;2023-05-17T03:03:34;8.95;;;3.05;;
80127;SDS011;69440;52.118;5.408;2023-05-17T03:06:01;7.50;;;2.55;;
80127;SDS011;69440;52.118;5.408;2023-05-17T03:08:29;15.60;;;4.53;;
80127;SDS011;69440;52.118;5.408;2023-05-17T03:10:56;10.15;;;2.97;;
80127;SDS011;69440;52.118;5.408;2023-05-17T03:13:23;10.18;;;3.38;;
80127;SDS011;69440;52.118;5.408;2023-05-17T03:15:49;10.80;;;2.88;;
80127;SDS011;69440;52.118;5.408;2023-05-17T03:18:16;13.63;;;3.55;;
80127;SDS011;69440;52.118;5.408;2023-05-17T03:20:42;12.02;;;3.13;;
80127;SDS011;69440;52.118;5.408;2023-05-17T03:23:09;9.77;;;3.42;;
80127;SDS011;69440;52.118;5.408;2023-05-17T03:25:35;13.73;;;2.97;;
80127;SDS011;69440;52.118;5.408;2023-05-17T03:28:02;10.38;;;3.05;;
80127;SDS011;69440;52.118;5.408;2023-05-17T03:30:28;12.02;;;3.53;;
80127;SDS011;69440;52.118;5.408;2023-05-17T03:32:55;9.25;;;2.83;;
80127;SDS011;69440;52.118;5.408;2023-05-17T03:35:21;10.75;;;3.10;;
80127;SDS011;69440;52.118;5.408;2023-05-17T03:37:48;12.13;;;3.60;;
80127;SDS011;69440;52.118;5.408;2023-05-17T03:40:14;9.20;;;2.38;;
80127;SDS011;69440;52.118;5.408;2023-05-17T03:42:41;14.50;;;3.40;;
80127;SDS011;69440;52.118;5.408;2023-05-17T03:45:08;13.25;;;3.10;;
80127;SDS011;69440;52.118;5.408;2023-05-17T03:47:34;14.43;;;2.75;;
80127;SDS011;69440;52.118;5.408;2023-05-17T03:50:01;10.60;;;2.85;;
80127;SDS011;69440;52.118;5.408;2023-05-17T03:52:27;12.50;;;3.10;;
80127;SDS011;69440;52.118;5.408;2023-05-17T03:54:54;7.78;;;2.63;;
80127;SDS011;69440;52.118;5.408;2023-05-17T03:57:20;9.43;;;2.75;;
80127;SDS011;69440;52.118;5.408;2023-05-17T03:59:47;12.45;;;2.80;;
80127;SDS011;69440;52.118;5.408;2023-05-17T04:02:14;10.25;;;2.30;;
80127;SDS011;69440;52.118;5.408;2023-05-17T04:04:47;10.05;;;2.63;;
80127;SDS011;69440;52.118;5.408;2023-05-17T04:07:15;9.18;;;2.42;;
80127;SDS011;69440;52.118;5.408;2023-05-17T04:09:42;10.05;;;2.65;;
80127;SDS011;69440;52.118;5.408;2023-05-17T04:12:09;11.18;;;1.92;;
80127;SDS011;69440;52.118;5.408;2023-05-17T04:14:36;10.88;;;2.67;;
80127;SDS011;69440;52.118;5.408;2023-05-17T04:17:03;11.02;;;2.60;;
80127;SDS011;69440;52.118;5.408;2023-05-17T04:19:30;7.53;;;2.92;;
80127;SDS011;69440;52.118;5.408;2023-05-17T04:21:57;6.82;;;2.17;;
80127;SDS011;69440;52.118;5.408;2023-05-17T04:24:23;7.90;;;2.00;;
80127;SDS011;69440;52.118;5.408;2023-05-17T04:26:49;12.35;;;2.75;;
80127;SDS011;69440;52.118;5.408;2023-05-17T04:29:16;11.27;;;2.70;;
80127;SDS011;69440;52.118;5.408;2023-05-17T04:31:43;9.82;;;2.75;;
80127;SDS011;69440;52.118;5.408;2023-05-17T04:34:09;10.15;;;3.05;;
80127;SDS011;69440;52.118;5.408;2023-05-17T04:36:35;8.63;;;2.40;;
80127;SDS011;69440;52.118;5.408;2023-05-17T04:39:02;8.52;;;1.77;;
80127;SDS011;69440;52.118;5.408;2023-05-17T04:41:28;9.18;;;2.08;;
80127;SDS011;69440;52.118;5.408;2023-05-17T04:43:56;6.68;;;2.15;;
80127;SDS011;69440;52.118;5.408;2023-05-17T04:46:22;8.68;;;1.83;;
80127;SDS011;69440;52.118;5.408;2023-05-17T04:48:49;9.45;;;1.92;;
80127;SDS011;69440;52.118;5.408;2023-05-17T04:51:16;5.55;;;2.22;;
80127;SDS011;69440;52.118;5.408;2023-05-17T04:53:42;13.25;;;2.35;;
80127;SDS011;69440;52.118;5.408;2023-05-17T04:56:08;11.57;;;2.08;;
80127;SDS011;69440;52.118;5.408;2023-05-17T04:58:35;8.00;;;2.05;;
80127;SDS011;69440;52.118;5.408;2023-05-17T05:01:02;11.60;;;2.15;;
80127;SDS011;69440;52.118;5.408;2023-05-17T05:03:30;9.30;;;2.05;;
80127;SDS011;69440;52.118;5.408;2023-05-17T05:05:57;10.45;;;2.30;;
80127;SDS011;69440;52.118;5.408;2023-05-17T05:08:23;9.32;;;2.03;;
80127;SDS011;69440;52.118;5.408;2023-05-17T05:10:50;9.10;;;1.80;;
80127;SDS011;69440;52.118;5.408;2023-05-17T05:13:16;8.48;;;2.47;;
80127;SDS011;69440;52.118;5.408;2023-05-17T05:15:43;5.97;;;2.47;;
80127;SDS011;69440;52.118;5.408;2023-05-17T05:18:09;6.65;;;1.52;;
80127;SDS011;69440;52.118;5.408;2023-05-17T05:20:36;10.30;;;2.13;;
80127;SDS011;69440;52.118;5.408;2023-05-17T05:23:02;7.40;;;1.48;;
80127;SDS011;69440;52.118;5.408;2023-05-17T05:25:31;7.55;;;1.60;;
80127;SDS011;69440;52.118;5.408;2023-05-17T05:27:58;11.10;;;1.90;;
80127;SDS011;69440;52.118;5.408;2023-05-17T05:30:26;11.00;;;1.83;;
80127;SDS011;69440;52.118;5.408;2023-05-17T05:32:52;9.38;;;1.60;;
80127;SDS011;69440;52.118;5.408;2023-05-17T05:35:19;14.18;;;2.03;;
80127;SDS011;69440;52.118;5.408;2023-05-17T05:37:45;8.10;;;1.77;;
80127;SDS011;69440;52.118;5.408;2023-05-17T05:40:12;10.13;;;1.95;;
80127;SDS011;69440;52.118;5.408;2023-05-17T05:42:39;13.25;;;2.13;;
80127;SDS011;69440;52.118;5.408;2023-05-17T05:45:05;10.88;;;2.15;;
80127;SDS011;69440;52.118;5.408;2023-05-17T05:47:33;14.40;;;1.67;;
80127;SDS011;69440;52.118;5.408;2023-05-17T05:49:59;12.73;;;1.98;;
80127;SDS011;69440;52.118;5.408;2023-05-17T05:52:26;7.75;;;1.27;;
80127;SDS011;69440;52.118;5.408;2023-05-17T05:54:52;11.98;;;2.20;;
80127;SDS011;69440;52.118;5.408;2023-05-17T05:57:19;10.43;;;2.17;;
80127;SDS011;69440;52.118;5.408;2023-05-17T05:59:45;8.60;;;1.75;;
80127;SDS011;69440;52.118;5.408;2023-05-17T06:02:12;12.48;;;1.73;;
80127;SDS011;69440;52.118;5.408;2023-05-17T06:04:38;13.35;;;2.22;;
80127;SDS011;69440;52.118;5.408;2023-05-17T06:07:11;5.53;;;1.70;;
80127;SDS011;69440;52.118;5.408;2023-05-17T06:09:38;11.52;;;1.52;;
80127;SDS011;69440;52.118;5.408;2023-05-17T06:12:04;6.35;;;1.70;;
80127;SDS011;69440;52.118;5.408;2023-05-17T06:14:31;7.55;;;1.58;;
80127;SDS011;69440;52.118;5.408;2023-05-17T06:16:57;12.68;;;1.58;;
80127;SDS011;69440;52.118;5.408;2023-05-17T06:19:24;9.73;;;1.77;;
80127;SDS011;69440;52.118;5.408;2023-05-17T06:21:53;7.68;;;2.15;;
80127;SDS011;69440;52.118;5.408;2023-05-17T06:24:20;8.48;;;1.42;;
80127;SDS011;69440;52.118;5.408;2023-05-17T06:26:46;12.05;;;1.95;;
80127;SDS011;69440;52.118;5.408;2023-05-17T06:29:13;10.15;;;1.63;;
80127;SDS011;69440;52.118;5.408;2023-05-17T06:31:40;10.13;;;1.42;;
80127;SDS011;69440;52.118;5.408;2023-05-17T06:34:06;8.60;;;1.25;;
80127;SDS011;69440;52.118;5.408;2023-05-17T06:36:33;5.60;;;1.48;;
80127;SDS011;69440;52.118;5.408;2023-05-17T06:39:02;7.13;;;1.45;;
80127;SDS011;69440;52.118;5.408;2023-05-17T06:41:29;8.15;;;1.20;;
80127;SDS011;69440;52.118;5.408;2023-05-17T06:43:55;7.22;;;1.50;;
80127;SDS011;69440;52.118;5.408;2023-05-17T06:46:22;8.70;;;1.25;;
80127;SDS011;69440;52.118;5.408;2023-05-17T06:48:48;5.72;;;1.33;;
80127;SDS011;69440;52.118;5.408;2023-05-17T06:51:16;8.63;;;1.20;;
80127;SDS011;69440;52.118;5.408;2023-05-17T06:53:43;7.13;;;1.10;;
80127;SDS011;69440;52.118;5.408;2023-05-17T06:56:09;5.57;;;1.13;;
80127;SDS011;69440;52.118;5.408;2023-05-17T06:58:36;8.02;;;1.15;;
80127;SDS011;69440;52.118;5.408;2023-05-17T07:01:02;7.50;;;1.50;;
80127;SDS011;69440;52.118;5.408;2023-05-17T07:03:29;6.50;;;1.38;;
80127;SDS011;69440;52.118;5.408;2023-05-17T07:05:55;6.68;;;1.50;;
80127;SDS011;69440;52.118;5.408;2023-05-17T07:08:22;5.90;;;0.90;;
80127;SDS011;69440;52.118;5.408;2023-05-17T07:10:51;5.45;;;1.60;;
80127;SDS011;69440;52.118;5.408;2023-05-17T07:13:18;5.47;;;1.33;;
80127;SDS011;69440;52.118;5.408;2023-05-17T07:15:46;8.23;;;1.73;;
80127;SDS011;69440;52.118;5.408;2023-05-17T07:18:12;12.88;;;2.15;;
80127;SDS011;69440;52.118;5.408;2023-05-17T07:20:39;5.55;;;1.08;;
80127;SDS011;69440;52.118;5.408;2023-05-17T07:23:05;7.65;;;1.45;;
80127;SDS011;69440;52.118;5.408;2023-05-17T07:25:32;9.05;;;1.30;;
80127;SDS011;69440;52.118;5.408;2023-05-17T07:27:59;6.75;;;1.65;;
80127;SDS011;69440;52.118;5.408;2023-05-17T07:30:28;10.13;;;1.30;;
80127;SDS011;69440;52.118;5.408;2023-05-17T07:32:54;10.23;;;1.50;;
80127;SDS011;69440;52.118;5.408;2023-05-17T07:35:21;7.95;;;1.40;;
80127;SDS011;69440;52.118;5.408;2023-05-17T07:37:47;7.60;;;1.33;;
80127;SDS011;69440;52.118;5.408;2023-05-17T07:40:14;6.78;;;1.60;;
80127;SDS011;69440;52.118;5.408;2023-05-17T07:42:40;7.63;;;1.13;;
80127;SDS011;69440;52.118;5.408;2023-05-17T07:45:07;7.72;;;1.40;;
80127;SDS011;69440;52.118;5.408;2023-05-17T07:47:34;10.10;;;1.33;;
80127;SDS011;69440;52.118;5.408;2023-05-17T07:50:01;5.50;;;0.75;;
80127;SDS011;69440;52.118;5.408;2023-05-17T07:52:29;5.75;;;1.73;;
80127;SDS011;69440;52.118;5.408;2023-05-17T07:54:55;9.15;;;1.25;;
80127;SDS011;69440;52.118;5.408;2023-05-17T07:57:22;7.78;;;1.30;;
80127;SDS011;69440;52.118;5.408;2023-05-17T07:59:48;4.75;;;1.00;;
80127;SDS011;69440;52.118;5.408;2023-05-17T08:02:15;6.90;;;1.17;;
80127;SDS011;69440;52.118;5.408;2023-05-17T08:04:41;10.50;;;1.10;;
80127;SDS011;69440;52.118;5.408;2023-05-17T08:07:07;7.55;;;1.25;;
80127;SDS011;69440;52.118;5.408;2023-05-17T08:09:34;3.88;;;1.10;;
80127;SDS011;69440;52.118;5.408;2023-05-17T08:12:00;5.85;;;1.10;;
80127;SDS011;69440;52.118;5.408;2023-05-17T08:14:27;7.78;;;1.33;;
80127;SDS011;69440;52.118;5.408;2023-05-17T08:16:54;5.72;;;1.20;;
80127;SDS011;69440;52.118;5.408;2023-05-17T08:19:20;7.32;;;1.20;;
80127;SDS011;69440;52.118;5.408;2023-05-17T08:21:47;6.80;;;1.30;;
80127;SDS011;69440;52.118;5.408;2023-05-17T08:24:14;8.73;;;1.48;;
80127;SDS011;69440;52.118;5.408;2023-05-17T08:26:41;5.43;;;0.90;;
80127;SDS011;69440;52.118;5.408;2023-05-17T08:29:07;6.18;;;1.13;;
80127;SDS011;69440;52.118;5.408;2023-05-17T08:31:34;6.05;;;1.08;;
80127;SDS011;69440;52.118;5.408;2023-05-17T08:34:00;6.15;;;1.42;;
80127;SDS011;69440;52.118;5.408;2023-05-17T08:36:27;5.65;;;0.95;;
80127;SDS011;69440;52.118;5.408;2023-05-17T08:38:53;6.22;;;1.20;;
80127;SDS011;69440;52.118;5.408;2023-05-17T08:41:20;5.13;;;1.60;;
80127;SDS011;69440;52.118;5.408;2023-05-17T08:43:47;5.38;;;1.50;;
80127;SDS011;69440;52.118;5.408;2023-05-17T08:46:14;6.53;;;1.30;;
80127;SDS011;69440;52.118;5.408;2023-05-17T08:48:43;4.95;;;1.02;;
80127;SDS011;69440;52.118;5.408;2023-05-17T08:51:12;3.63;;;1.25;;
80127;SDS011;69440;52.118;5.408;2023-05-17T08:53:39;5.15;;;1.10;;
80127;SDS011;69440;52.118;5.408;2023-05-17T08:56:07;3.85;;;1.35;;
80127;SDS011;69440;52.118;5.408;2023-05-17T08:58:38;5.55;;;1.02;;
80127;SDS011;69440;52.118;5.408;2023-05-17T09:01:22;5.63;;;1.20;;
80127;SDS011;69440;52.118;5.408;2023-05-17T09:03:51;4.93;;;0.88;;
80127;SDS011;69440;52.118;5.408;2023-05-17T09:06:19;4.05;;;1.10;;
80127;SDS011;69440;52.118;5.408;2023-05-17T09:08:48;5.18;;;1.00;;
80127;SDS011;69440;52.118;5.408;2023-05-17T09:11:24;4.80;;;1.10;;
80127;SDS011;69440;52.118;5.408;2023-05-17T09:13:53;5.35;;;1.27;;
80127;SDS011;69440;52.118;5.408;2023-05-17T09:16:23;6.90;;;1.65;;
80127;SDS011;69440;52.118;5.408;2023-05-17T09:18:52;7.03;;;1.17;;
80127;SDS011;69440;52.118;5.408;2023-05-17T09:21:20;5.13;;;1.02;;
80127;SDS011;69440;52.118;5.408;2023-05-17T09:23:49;4.72;;;1.20;;
80127;SDS011;69440;52.118;5.408;2023-05-17T09:26:42;11.65;;;1.25;;
80127;SDS011;69440;52.118;5.408;2023-05-17T09:29:13;7.80;;;1.17;;
80127;SDS011;69440;52.118;5.408;2023-05-17T09:31:41;3.78;;;1.05;;
80127;SDS011;69440;52.118;5.408;2023-05-17T09:34:08;8.48;;;1.17;;
80127;SDS011;69440;52.118;5.408;2023-05-17T09:36:36;7.88;;;1.40;;
80127;SDS011;69440;52.118;5.408;2023-05-17T09:39:05;5.15;;;0.90;;
80127;SDS011;69440;52.118;5.408;2023-05-17T09:41:39;5.50;;;0.95;;
80127;SDS011;69440;52.118;5.408;2023-05-17T09:44:08;4.85;;;1.00;;
80127;SDS011;69440;52.118;5.408;2023-05-17T09:46:37;5.20;;;1.42;;
80127;SDS011;69440;52.118;5.408;2023-05-17T09:49:07;5.75;;;1.00;;
80127;SDS011;69440;52.118;5.408;2023-05-17T09:51:35;5.65;;;1.00;;
80127;SDS011;69440;52.118;5.408;2023-05-17T09:54:02;4.65;;;0.80;;
80127;SDS011;69440;52.118;5.408;2023-05-17T09:56:31;4.57;;;0.85;;
80127;SDS011;69440;52.118;5.408;2023-05-17T09:59:00;5.85;;;1.30;;
80127;SDS011;69440;52.118;5.408;2023-05-17T10:01:28;6.75;;;1.02;;
80127;SDS011;69440;52.118;5.408;2023-05-17T10:04:00;3.20;;;1.00;;
80127;SDS011;69440;52.118;5.408;2023-05-17T10:06:28;6.50;;;0.95;;
80127;SDS011;69440;52.118;5.408;2023-05-17T10:09:12;5.60;;;1.08;;
80127;SDS011;69440;52.118;5.408;2023-05-17T10:11:40;4.68;;;1.17;;
80127;SDS011;69440;52.118;5.408;2023-05-17T10:16:44;5.32;;;1.23;;
80127;SDS011;69440;52.118;5.408;2023-05-17T10:19:10;3.70;;;1.02;;
80127;SDS011;69440;52.118;5.408;2023-05-17T10:21:38;7.10;;;0.90;;
80127;SDS011;69440;52.118;5.408;2023-05-17T10:24:06;4.03;;;0.90;;
80127;SDS011;69440;52.118;5.408;2023-05-17T10:26:33;4.00;;;0.80;;
80127;SDS011;69440;52.118;5.408;2023-05-17T10:29:01;5.07;;;1.05;;
80127;SDS011;69440;52.118;5.408;2023-05-17T10:31:29;4.10;;;1.00;;
80127;SDS011;69440;52.118;5.408;2023-05-17T10:34:01;5.85;;;0.93;;
80127;SDS011;69440;52.118;5.408;2023-05-17T10:36:31;4.90;;;0.88;;
80127;SDS011;69440;52.118;5.408;2023-05-17T10:38:58;8.68;;;1.33;;
80127;SDS011;69440;52.118;5.408;2023-05-17T10:41:26;5.63;;;1.17;;
80127;SDS011;69440;52.118;5.408;2023-05-17T10:43:56;8.30;;;1.25;;
80127;SDS011;69440;52.118;5.408;2023-05-17T10:46:24;7.82;;;1.25;;
80127;SDS011;69440;52.118;5.408;2023-05-17T10:48:51;3.47;;;0.98;;
80127;SDS011;69440;52.118;5.408;2023-05-17T10:51:22;6.15;;;1.10;;
80127;SDS011;69440;52.118;5.408;2023-05-17T10:54:04;5.00;;;1.25;;
80127;SDS011;69440;52.118;5.408;2023-05-17T10:56:38;15.15;;;2.15;;
80127;SDS011;69440;52.118;5.408;2023-05-17T10:59:40;7.78;;;2.42;;
80127;SDS011;69440;52.118;5.408;2023-05-17T11:02:04;4.32;;;1.17;;
80127;SDS011;69440;52.118;5.408;2023-05-17T11:04:39;5.47;;;1.00;;
80127;SDS011;69440;52.118;5.408;2023-05-17T11:09:44;5.15;;;1.15;;
80127;SDS011;69440;52.118;5.408;2023-05-17T11:12:14;7.43;;;1.25;;
80127;SDS011;69440;52.118;5.408;2023-05-17T11:14:45;7.85;;;1.40;;
80127;SDS011;69440;52.118;5.408;2023-05-17T11:17:14;5.35;;;1.27;;
80127;SDS011;69440;52.118;5.408;2023-05-17T11:22:33;4.38;;;0.93;;
80127;SDS011;69440;52.118;5.408;2023-05-17T11:25:05;5.35;;;1.40;;
80127;SDS011;69440;52.118;5.408;2023-05-17T11:27:37;4.38;;;1.23;;
80127;SDS011;69440;52.118;5.408;2023-05-17T11:30:09;6.05;;;0.90;;
80127;SDS011;69440;52.118;5.408;2023-05-17T11:32:45;9.68;;;1.55;;
80127;SDS011;69440;52.118;5.408;2023-05-17T11:35:16;6.70;;;1.30;;
80127;SDS011;69440;52.118;5.408;2023-05-17T11:37:44;6.10;;;1.50;;
80127;SDS011;69440;52.118;5.408;2023-05-17T11:40:11;4.30;;;1.20;;
80127;SDS011;69440;52.118;5.408;2023-05-17T11:42:41;8.90;;;1.00;;
80127;SDS011;69440;52.118;5.408;2023-05-17T11:45:07;5.15;;;1.42;;
80127;SDS011;69440;52.118;5.408;2023-05-17T11:47:37;9.10;;;1.48;;
80127;SDS011;69440;52.118;5.408;2023-05-17T11:50:04;4.07;;;1.20;;
80127;SDS011;69440;52.118;5.408;2023-05-17T11:52:32;8.32;;;1.38;;
80127;SDS011;69440;52.118;5.408;2023-05-17T11:54:59;8.45;;;1.55;;
80127;SDS011;69440;52.118;5.408;2023-05-17T11:57:29;10.88;;;1.58;;
80127;SDS011;69440;52.118;5.408;2023-05-17T11:59:57;4.75;;;1.23;;
80127;SDS011;69440;52.118;5.408;2023-05-17T12:02:26;7.30;;;1.60;;
80127;SDS011;69440;52.118;5.408;2023-05-17T12:04:54;9.35;;;1.85;;
80127;SDS011;69440;52.118;5.408;2023-05-17T12:07:21;7.18;;;1.73;;
80127;SDS011;69440;52.118;5.408;2023-05-17T12:09:48;6.85;;;1.40;;
80127;SDS011;69440;52.118;5.408;2023-05-17T12:12:15;4.93;;;1.40;;
80127;SDS011;69440;52.118;5.408;2023-05-17T12:14:42;8.68;;;1.70;;
80127;SDS011;69440;52.118;5.408;2023-05-17T12:17:09;6.55;;;1.52;;
80127;SDS011;69440;52.118;5.408;2023-05-17T12:19:38;8.00;;;1.77;;
80127;SDS011;69440;52.118;5.408;2023-05-17T12:22:07;6.75;;;1.40;;
80127;SDS011;69440;52.118;5.408;2023-05-17T12:24:37;5.35;;;1.63;;
80127;SDS011;69440;52.118;5.408;2023-05-17T12:27:05;6.53;;;1.70;;
80127;SDS011;69440;52.118;5.408;2023-05-17T12:29:32;5.65;;;1.50;;
80127;SDS011;69440;52.118;5.408;2023-05-17T12:31:59;5.70;;;1.73;;
80127;SDS011;69440;52.118;5.408;2023-05-17T12:34:27;5.82;;;1.35;;
80127;SDS011;69440;52.118;5.408;2023-05-17T12:36:55;5.53;;;1.40;;
80127;SDS011;69440;52.118;5.408;2023-05-17T12:39:22;4.95;;;1.60;;
80127;SDS011;69440;52.118;5.408;2023-05-17T12:41:50;4.43;;;1.35;;
80127;SDS011;69440;52.118;5.408;2023-05-17T12:44:18;5.88;;;1.73;;
80127;SDS011;69440;52.118;5.408;2023-05-17T12:46:47;7.35;;;1.70;;
80127;SDS011;69440;52.118;5.408;2023-05-17T12:49:19;7.18;;;1.98;;
80127;SDS011;69440;52.118;5.408;2023-05-17T12:51:48;4.55;;;1.50;;
80127;SDS011;69440;52.118;5.408;2023-05-17T12:56:53;4.45;;;1.60;;
80127;SDS011;69440;52.118;5.408;2023-05-17T12:59:20;5.75;;;1.60;;
80127;SDS011;69440;52.118;5.408;2023-05-17T13:01:54;6.55;;;1.63;;
80127;SDS011;69440;52.118;5.408;2023-05-17T13:04:33;4.85;;;1.20;;
80127;SDS011;69440;52.118;5.408;2023-05-17T13:07:02;4.40;;;1.25;;
80127;SDS011;69440;52.118;5.408;2023-05-17T13:09:30;3.75;;;1.40;;
80127;SDS011;69440;52.118;5.408;2023-05-17T13:11:59;5.20;;;1.35;;
80127;SDS011;69440;52.118;5.408;2023-05-17T13:14:34;6.18;;;1.45;;
80127;SDS011;69440;52.118;5.408;2023-05-17T13:17:01;8.68;;;1.52;;
80127;SDS011;69440;52.118;5.408;2023-05-17T13:19:31;5.18;;;1.52;;
80127;SDS011;69440;52.118;5.408;2023-05-17T13:21:58;6.68;;;2.00;;
80127;SDS011;69440;52.118;5.408;2023-05-17T13:24:25;5.60;;;1.92;;
80127;SDS011;69440;52.118;5.408;2023-05-17T13:26:52;8.20;;;1.80;;
80127;SDS011;69440;52.118;5.408;2023-05-17T13:29:19;6.20;;;1.63;;
80127;SDS011;69440;52.118;5.408;2023-05-17T13:32:04;8.57;;;1.45;;
80127;SDS011;69440;52.118;5.408;2023-05-17T13:34:31;8.15;;;1.88;;
80127;SDS011;69440;52.118;5.408;2023-05-17T13:36:58;5.80;;;2.08;;
80127;SDS011;69440;52.118;5.408;2023-05-17T13:39:24;6.80;;;1.55;;
80127;SDS011;69440;52.118;5.408;2023-05-17T13:41:51;6.90;;;1.52;;
80127;SDS011;69440;52.118;5.408;2023-05-17T13:44:17;11.25;;;2.00;;
80127;SDS011;69440;52.118;5.408;2023-05-17T13:46:44;6.68;;;1.42;;
80127;SDS011;69440;52.118;5.408;2023-05-17T13:49:10;7.10;;;1.63;;
80127;SDS011;69440;52.118;5.408;2023-05-17T13:51:38;5.10;;;1.73;;
80127;SDS011;69440;52.118;5.408;2023-05-17T13:54:05;6.80;;;1.88;;
80127;SDS011;69440;52.118;5.408;2023-05-17T13:56:32;5.25;;;1.55;;
80127;SDS011;69440;52.118;5.408;2023-05-17T13:58:59;4.78;;;1.40;;
80127;SDS011;69440;52.118;5.408;2023-05-17T14:01:26;6.03;;;1.48;;
80127;SDS011;69440;52.118;5.408;2023-05-17T14:03:52;5.15;;;1.80;;
80127;SDS011;69440;52.118;5.408;2023-05-17T14:06:20;5.50;;;1.35;;
80127;SDS011;69440;52.118;5.408;2023-05-17T14:08:47;6.28;;;1.40;;
80127;SDS011;69440;52.118;5.408;2023-05-17T14:11:14;6.80;;;1.52;;
80127;SDS011;69440;52.118;5.408;2023-05-17T14:13:41;5.63;;;1.52;;
80127;SDS011;69440;52.118;5.408;2023-05-17T14:16:07;6.32;;;1.60;;
80127;SDS011;69440;52.118;5.408;2023-05-17T14:18:35;5.85;;;1.67;;
80127;SDS011;69440;52.118;5.408;2023-05-17T14:21:02;6.15;;;1.60;;
80127;SDS011;69440;52.118;5.408;2023-05-17T14:23:29;7.25;;;1.98;;
80127;SDS011;69440;52.118;5.408;2023-05-17T14:25:56;7.60;;;1.75;;
80127;SDS011;69440;52.118;5.408;2023-05-17T14:28:23;7.88;;;1.42;;
80127;SDS011;69440;52.118;5.408;2023-05-17T14:30:49;6.90;;;1.90;;
80127;SDS011;69440;52.118;5.408;2023-05-17T14:33:16;5.55;;;1.60;;
80127;SDS011;69440;52.118;5.408;2023-05-17T14:35:43;5.45;;;1.40;;
80127;SDS011;69440;52.118;5.408;2023-05-17T14:38:10;4.95;;;1.75;;
80127;SDS011;69440;52.118;5.408;2023-05-17T14:40:36;4.95;;;1.70;;
80127;SDS011;69440;52.118;5.408;2023-05-17T14:43:02;9.50;;;1.65;;
80127;SDS011;69440;52.118;5.408;2023-05-17T14:45:29;10.13;;;1.95;;
80127;SDS011;69440;52.118;5.408;2023-05-17T14:47:55;7.35;;;1.88;;
80127;SDS011;69440;52.118;5.408;2023-05-17T14:50:22;5.53;;;1.60;;
80127;SDS011;69440;52.118;5.408;2023-05-17T14:52:48;5.88;;;1.48;;
80127;SDS011;69440;52.118;5.408;2023-05-17T14:55:15;7.25;;;1.70;;
80127;SDS011;69440;52.118;5.408;2023-05-17T14:57:42;8.85;;;2.28;;
80127;SDS011;69440;52.118;5.408;2023-05-17T15:00:09;5.93;;;1.48;;
80127;SDS011;69440;52.118;5.408;2023-05-17T15:02:37;6.03;;;1.48;;
80127;SDS011;69440;52.118;5.408;2023-05-17T15:05:03;7.18;;;1.55;;
80127;SDS011;69440;52.118;5.408;2023-05-17T15:07:30;7.32;;;1.45;;
80127;SDS011;69440;52.118;5.408;2023-05-17T15:09:58;6.10;;;1.88;;
80127;SDS011;69440;52.118;5.408;2023-05-17T15:12:24;4.07;;;1.30;;